CheckWX is a tool to help pilots better visualize weather data.  It is not intended as a substitute for an official pre-flight weather briefing.

00:52:18 UTC

4O4 METAR
Mc Curtain County Regional Airport
Idabel, Oklahoma, USA
Current

17 mins ago

K4O4 240035Z AUTO 00000KT 10SM OVC065 18/09 A3002 RMK AO2
Observed
Mar-24 @ 00:35 UTC
Visibility
10 SM
Flight Rules
VFR
Cloud Levels
  • Overcast at 6,500' AGL
Temperature
18°C / 64°F
Dewpoint
C / 48°F
Humidity
56%
Altimeter
30.02" Hg
Pressure
1016.62 hPa
Previous

37 mins ago

K4O4 240015Z AUTO 16005KT 10SM OVC065 18/09 A3001 RMK AO2
Observed
Mar-24 @ 00:15 UTC
Wind
  • 160° at 5 KTS
Visibility
10 SM
Flight Rules
VFR
Cloud Levels
  • Overcast at 6,500' AGL
Temperature
18°C / 64°F
Dewpoint
C / 48°F
Humidity
56%
Altimeter
30.01" Hg
Pressure
1016.22 hPa
Previous

57 mins ago

K4O4 232355Z AUTO 16006KT 10SM OVC065 19/09 A3000 RMK AO2
Observed
Mar-23 @ 23:55 UTC
Wind
  • 160° at 6 KTS
Visibility
10 SM
Flight Rules
VFR
Cloud Levels
  • Overcast at 6,500' AGL
Temperature
19°C / 66°F
Dewpoint
C / 48°F
Humidity
52%
Altimeter
30" Hg
Pressure
1015.92 hPa